KREO/REO METAR and TAF weather

Enter ICAO airport designator
Station Type Date Time Source
KREO METAR 2021/05/14 05:52 UTC NOAA

KREO 140552Z AUTO 00000KT 18/03 A3002 RMK AO1 SLP130 T01780028 10300 20172 51008


Station Type Date Time Source
KREO Decoded METAR 2021/05/14 05:52 UTC NOAA

ROME, OR, United States (KREO) 42-35N 117-52W 1235M
May 14, 2021 - 01:52 AM EDT / 2021.05.14 0552 UTC
Wind: Calm:0
Temperature: 64.0 F (17.8 C)
Dew Point: 37.0 F (2.8 C)
Relative Humidity: 36%
Pressure (altimeter): 30.02 in. Hg (1016 hPa)
Pressure tendency: 0.02 inches (0.8 hPa) higher than three hours ago
ob: KREO 140552Z AUTO 00000KT 18/03 A3002 RMK AO1 SLP130 T01780028 10300 20172 51008
cycle: 6

Station Type Date Time Source
KREO TAF UTC NOAA

Error!

Example: see airport list